メインページ
METAR-TAF:

METAR-TAF

空港 :

ウランバートル, モンゴル国

チンギスハーン国際空港

緯度: 47-55N, 経度: 106-52E, 海抜: 1306m

現時点の気象観測

当レポートは16分前の12:00(UTC)に作成
変向風 4kt
気温 -17°C
湿度 77%
気圧 1016 hPa
視程10km以上
1,500メートル以下は雲なし、積乱雲なし

METAR: ZMUB 241200Z VRB02MPS CAVOK M17/M20 Q1016 NOSIG RMK QFE654.7 73

時間: 20:16 (12:16 UTC)

予報

当レポートは1時間36分前の10:40(UTC)に作成
予報は24日の 12時(UTC)から 25日の 18時(UTC)まで有効
変向風 4kt
視程10km以上
高度10000ftの雲は散在している
24日の 16時(UTC)から 24日の 18時(UTC)まで徐々に
視程: 6000m

TAF: ZMUB 241040Z 2412/2518 VRB02MPS 9999 SCT100 TNM26/2423Z TXM08/2507Z BECMG 2416/2418 6000

4,000以上の空港の気象観測と天気予報(METAR報とTAF報)

利用可能な観測所は地図上に黄色い丸と赤い丸で示す。

丸の上にカーソルを重ねると観測所名を参照できる。

次にクリックすると気象観測と天気予報を参照できる。

マップの切り替え:黒色「×」印の緑ボタンをクリックして拡大、「-」印の緑ボタンをクリックして縮小、緑色の三角印をクリックして隣りの地図に切り替え


METAR-TAF: